Time;durP1;ratioP1;P1;durP2;ratioP2;P2;SDS_P1;SDS_P2;PMS_P1;PMS_P2;Temp;Humidity;BMP_temperature;BMP_pressure;BME280_temperature;BME280_humidity;BME280_pressure;Samples;Min_cycle;Max_cycle;Signal;HPM_P1;HPM_P2
2024/03/02 00:00:20;;;;;;;39.00;22.50;;;;;;;1.61;100.00;101191.98;108117;1254;73383;-66
2024/03/02 00:02:49;;;;;;;35.60;23.00;;;;;;;1.63;100.00;101198.98;108063;1254;72692;-65
2024/03/02 00:05:21;;;;;;;40.10;23.50;;;;;;;1.67;100.00;101203.80;108011;1256;72793;-65
2024/03/02 00:07:57;;;;;;;36.80;23.70;;;;;;;1.69;100.00;101201.58;108469;1254;60016;-66
2024/03/02 00:10:29;;;;;;;37.50;23.10;;;;;;;1.70;100.00;101206.40;108049;1256;61103;-65
2024/03/02 00:12:57;;;;;;;35.60;23.60;;;;;;;1.72;100.00;101204.38;108175;1254;74646;-66
2024/03/02 00:15:47;;;;;;;40.90;24.40;;;;;;;1.74;100.00;101199.90;108147;1254;71637;-66
2024/03/02 00:18:20;;;;;;;39.80;24.50;;;;;;;1.75;100.00;101194.33;108070;1256;72694;-66
2024/03/02 00:20:48;;;;;;;40.20;24.00;;;;;;;1.76;100.00;101201.25;108064;1256;61185;-66
2024/03/02 00:23:18;;;;;;;37.10;23.80;;;;;;;1.76;100.00;101197.77;108100;1254;61394;-66
2024/03/02 00:25:53;;;;;;;37.70;23.80;;;;;;;1.75;100.00;101190.95;108091;1254;74718;-65
2024/03/02 00:28:33;;;;;;;41.10;24.70;;;;;;;1.74;100.00;101191.83;108146;1254;72825;-65
2024/03/02 00:31:11;;;;;;;41.30;25.30;;;;;;;1.72;100.00;101189.10;108064;1254;71428;-66
2024/03/02 00:33:43;;;;;;;39.20;25.20;;;;;;;1.71;100.00;101189.90;108099;1257;61186;-65
2024/03/02 00:36:13;;;;;;;37.00;23.60;;;;;;;1.69;100.00;101190.35;108005;1254;61121;-65
2024/03/02 00:38:59;;;;;;;35.50;24.00;;;;;;;1.64;100.00;101191.05;107988;1254;73515;-65
2024/03/02 00:41:29;;;;;;;37.20;24.40;;;;;;;1.61;100.00;101198.83;108068;1254;71604;-65
2024/03/02 00:44:00;;;;;;;39.70;24.40;;;;;;;1.57;100.00;101194.53;108015;1256;73827;-66
2024/03/02 00:46:30;;;;;;;29.50;18.60;;;;;;;1.53;100.00;101191.80;108029;1256;61251;-67
2024/03/02 00:49:03;;;;;;;37.50;24.80;;;;;;;1.51;100.00;101195.13;108083;1254;61215;-67
2024/03/02 00:51:32;;;;;;;38.20;24.90;;;;;;;1.49;100.00;101186.60;108125;1254;73342;-67
2024/03/02 00:54:04;;;;;;;39.30;25.60;;;;;;;1.47;100.00;101187.20;108103;1254;71309;-66
2024/03/02 00:56:32;;;;;;;40.30;25.10;;;;;;;1.44;100.00;101187.14;108035;1254;72725;-66
2024/03/02 00:59:00;;;;;;;42.00;25.30;;;;;;;1.42;100.00;101185.33;108099;1254;61221;-66
2024/03/02 01:01:28;;;;;;;39.90;24.70;;;;;;;1.39;100.00;101183.14;108214;1254;61124;-66
2024/03/02 01:03:55;;;;;;;40.40;25.30;;;;;;;1.37;100.00;101179.42;108222;1254;73461;-66
2024/03/02 01:06:23;;;;;;;41.00;24.50;;;;;;;1.35;100.00;101185.63;108091;1254;71439;-65
2024/03/02 01:08:51;;;;;;;42.00;24.90;;;;;;;1.32;100.00;101184.98;108273;1254;71632;-65
2024/03/02 01:11:23;;;;;;;41.20;25.90;;;;;;;1.31;100.00;101181.88;108110;1253;60977;-68
2024/03/02 01:13:51;;;;;;;42.30;25.80;;;;;;;1.30;100.00;101182.35;108161;1254;61166;-66
2024/03/02 01:16:20;;;;;;;40.60;25.60;;;;;;;1.25;100.00;101183.09;108168;1254;74682;-66
2024/03/02 01:18:48;;;;;;;40.90;25.30;;;;;;;1.23;100.00;101181.27;108081;1254;72664;-66
2024/03/02 01:21:17;;;;;;;39.30;24.40;;;;;;;1.19;100.00;101177.88;108281;1254;72693;-66
2024/03/02 01:23:44;;;;;;;39.60;25.30;;;;;;;1.17;100.00;101176.30;108014;1254;60960;-66
2024/03/02 01:26:12;;;;;;;42.30;25.70;;;;;;;1.18;100.00;101175.96;108170;1254;61368;-66
2024/03/02 01:28:40;;;;;;;38.50;24.80;;;;;;;1.18;100.00;101174.01;108081;1254;73337;-66
2024/03/02 01:31:09;;;;;;;37.10;23.90;;;;;;;1.16;100.00;101175.69;108126;1257;72942;-66
2024/03/02 01:33:36;;;;;;;39.50;24.80;;;;;;;1.12;100.00;101173.33;108037;1254;72971;-66
2024/03/02 01:36:05;;;;;;;42.10;25.00;;;;;;;1.09;100.00;101171.37;108131;1254;61231;-66
2024/03/02 01:38:33;;;;;;;39.60;24.30;;;;;;;1.08;100.00;101170.90;108128;1254;61147;-65
2024/03/02 01:41:02;;;;;;;40.60;25.70;;;;;;;1.06;100.00;101171.41;108079;1254;73735;-66
2024/03/02 01:43:30;;;;;;;40.60;24.80;;;;;;;1.06;100.00;101169.84;107939;1254;72779;-66
2024/03/02 01:45:57;;;;;;;40.70;25.40;;;;;;;1.06;100.00;101171.20;107993;1254;71467;-67
2024/03/02 01:48:26;;;;;;;37.20;24.70;;;;;;;1.05;100.00;101171.39;108099;1256;60580;-66
2024/03/02 01:50:54;;;;;;;41.60;24.70;;;;;;;1.02;100.00;101170.00;108119;1254;61163;-66
2024/03/02 01:53:22;;;;;;;39.70;25.20;;;;;;;0.99;100.00;101172.10;107845;1254;73422;-67
2024/03/02 01:55:49;;;;;;;40.90;26.10;;;;;;;0.97;100.00;101167.81;108093;1254;71745;-66
2024/03/02 01:58:17;;;;;;;37.10;24.60;;;;;;;0.94;100.00;101164.45;108083;1254;72688;-66
2024/03/02 02:00:45;;;;;;;40.90;25.50;;;;;;;0.89;100.00;101161.96;108133;1254;61351;-66
2024/03/02 02:03:13;;;;;;;42.30;26.40;;;;;;;0.87;100.00;101163.86;108049;1254;60049;-68
2024/03/02 02:05:42;;;;;;;41.20;27.30;;;;;;;0.82;100.00;101165.19;108123;1254;73451;-67
2024/03/02 02:08:10;;;;;;;39.60;25.50;;;;;;;0.83;100.00;101164.52;108126;1256;71146;-66
2024/03/02 02:10:39;;;;;;;44.30;26.20;;;;;;;0.79;100.00;101165.80;108063;1254;71507;-66
2024/03/02 02:13:08;;;;;;;41.80;25.00;;;;;;;0.74;100.00;101163.31;108073;1254;61245;-65
2024/03/02 02:15:36;;;;;;;40.70;25.20;;;;;;;0.65;100.00;101160.07;108158;1254;61193;-66
2024/03/02 02:18:04;;;;;;;43.80;26.80;;;;;;;0.65;100.00;101162.13;108129;1254;73606;-67
2024/03/02 02:20:32;;;;;;;43.40;25.70;;;;;;;0.62;100.00;101166.54;108096;1256;71518;-66
2024/03/02 02:23:01;;;;;;;40.50;26.40;;;;;;;0.59;100.00;101171.62;108034;1256;71116;-68
2024/03/02 02:25:29;;;;;;;38.40;25.40;;;;;;;0.61;100.00;101165.95;108016;1254;61347;-67
2024/03/02 02:27:57;;;;;;;41.00;27.30;;;;;;;0.59;100.00;101166.02;108164;1254;61124;-67
2024/03/02 02:30:31;;;;;;;36.10;22.10;;;;;;;0.57;100.00;101172.58;108096;1254;74625;-66
2024/03/02 02:32:59;;;;;;;42.30;25.90;;;;;;;0.54;100.00;101173.13;108150;1254;72604;-66
2024/03/02 02:35:28;;;;;;;44.90;27.90;;;;;;;0.52;100.00;101166.15;108100;1254;71319;-66
2024/03/02 02:37:55;;;;;;;41.10;27.10;;;;;;;0.50;100.00;101163.90;108048;1254;60505;-66
2024/03/02 02:40:23;;;;;;;40.10;26.00;;;;;;;0.50;100.00;101166.73;107989;1254;61183;-66
2024/03/02 02:42:54;;;;;;;44.80;26.70;;;;;;;0.49;100.00;101173.33;108122;1254;73449;-67
2024/03/02 02:45:22;;;;;;;42.10;27.40;;;;;;;0.47;100.00;101173.91;108115;1254;71448;-66
2024/03/02 02:47:50;;;;;;;43.00;27.40;;;;;;;0.44;100.00;101170.51;108205;1254;72644;-65
2024/03/02 02:50:18;;;;;;;44.70;27.70;;;;;;;0.43;100.00;101170.13;108091;1255;61251;-65
2024/03/02 02:52:46;;;;;;;43.40;28.00;;;;;;;0.40;100.00;101169.23;108099;1254;61016;-66
2024/03/02 02:55:15;;;;;;;46.10;28.70;;;;;;;0.38;100.00;101163.15;108102;1254;73651;-66
2024/03/02 02:57:44;;;;;;;41.60;26.50;;;;;;;0.37;100.00;101166.66;108096;1254;71838;-66
2024/03/02 03:00:18;;;;;;;40.90;26.50;;;;;;;0.33;100.00;101163.60;107947;1256;70340;-66
2024/03/02 03:02:48;;;;;;;42.00;26.70;;;;;;;0.29;100.00;101165.48;108017;1254;61245;-66
2024/03/02 03:05:17;;;;;;;44.20;28.30;;;;;;;0.23;100.00;101162.77;107927;1256;61342;-66
2024/03/02 03:07:45;;;;;;;41.80;26.80;;;;;;;0.18;100.00;101162.08;108051;1254;74609;-66
2024/03/02 03:10:13;;;;;;;46.30;27.90;;;;;;;0.15;100.00;101161.96;108109;1258;70578;-66
2024/03/02 03:12:45;;;;;;;44.10;27.90;;;;;;;0.09;100.00;101159.57;108170;1254;71052;-66
2024/03/02 03:15:13;;;;;;;46.90;28.90;;;;;;;0.06;100.00;101156.70;108052;1257;61656;-65
2024/03/02 03:17:40;;;;;;;44.10;27.90;;;;;;;0.03;100.00;101159.48;108104;1254;61243;-66
2024/03/02 03:20:15;;;;;;;48.00;29.90;;;;;;;-0.01;100.00;101158.98;108161;1254;73397;-65
2024/03/02 03:22:43;;;;;;;43.10;28.10;;;;;;;-0.01;100.00;101157.78;108161;1254;72741;-65
2024/03/02 03:25:12;;;;;;;41.50;27.30;;;;;;;-0.00;100.00;101163.47;108116;1259;71446;-66
2024/03/02 03:27:40;;;;;;;38.70;25.60;;;;;;;-0.01;100.00;101160.21;108235;1254;61080;-67
2024/03/02 03:30:09;;;;;;;42.10;26.30;;;;;;;-0.03;100.00;101157.86;108241;1254;60187;-69
2024/03/02 03:32:37;;;;;;;42.20;28.10;;;;;;;-0.05;100.00;101155.27;108184;1253;72445;-65
2024/03/02 03:35:06;;;;;;;40.70;25.20;;;;;;;-0.07;100.00;101155.81;108146;1253;71648;-65
2024/03/02 03:37:34;;;;;;;38.80;25.50;;;;;;;-0.08;100.00;101152.67;108147;1254;72589;-65
2024/03/02 03:40:03;;;;;;;40.50;26.10;;;;;;;-0.10;100.00;101145.30;108058;1254;61128;-66
2024/03/02 03:42:30;;;;;;;44.70;27.20;;;;;;;-0.09;100.00;101145.69;108091;1254;61087;-65
2024/03/02 03:44:58;;;;;;;43.70;27.70;;;;;;;-0.06;100.00;101147.34;108023;1254;73354;-65
2024/03/02 03:47:26;;;;;;;44.50;26.80;;;;;;;-0.04;100.00;101150.98;108088;1259;72706;-66
2024/03/02 03:49:54;;;;;;;43.50;27.30;;;;;;;-0.02;100.00;101153.16;108071;1254;71407;-66
2024/03/02 03:52:21;;;;;;;46.70;25.70;;;;;;;-0.01;100.00;101152.33;108042;1254;61088;-66
2024/03/02 03:54:49;;;;;;;41.40;25.00;;;;;;;-0.01;100.00;101148.46;108038;1254;60421;-65
2024/03/02 03:57:17;;;;;;;45.00;27.90;;;;;;;-0.01;100.00;101152.00;108066;1254;74670;-66
2024/03/02 03:59:46;;;;;;;40.20;27.00;;;;;;;-0.01;100.00;101155.35;108047;1254;71456;-65
2024/03/02 04:02:14;;;;;;;43.00;28.60;;;;;;;-0.01;100.00;101151.41;108108;1254;71209;-65
2024/03/02 04:04:41;;;;;;;45.00;28.50;;;;;;;0.01;100.00;101148.52;108073;1256;59952;-66
2024/03/02 04:07:09;;;;;;;38.20;24.70;;;;;;;0.02;100.00;101152.59;108127;1254;60596;-64
2024/03/02 04:09:37;;;;;;;40.20;26.50;;;;;;;0.01;100.00;101155.52;108063;1254;73441;-65
2024/03/02 04:12:05;;;;;;;41.40;26.10;;;;;;;-0.02;100.00;101152.40;108156;1254;71510;-66
2024/03/02 04:14:33;;;;;;;45.50;28.10;;;;;;;-0.03;100.00;101154.54;108125;1254;71339;-66
2024/03/02 04:17:01;;;;;;;43.80;28.10;;;;;;;-0.05;100.00;101154.52;108100;1254;61186;-66
2024/03/02 04:19:29;;;;;;;40.50;27.10;;;;;;;-0.06;100.00;101148.20;108070;1254;61087;-66
2024/03/02 04:21:56;;;;;;;38.60;24.80;;;;;;;-0.06;100.00;101149.73;108096;1255;73715;-65
2024/03/02 04:24:27;;;;;;;40.20;25.30;;;;;;;-0.05;100.00;101149.83;108176;1254;71811;-66
2024/03/02 04:26:55;;;;;;;38.50;24.90;;;;;;;-0.05;100.00;101151.04;108017;1254;71400;-67
2024/03/02 04:29:23;;;;;;;39.70;25.80;;;;;;;-0.05;100.00;101147.89;108305;1254;60890;-67
2024/03/02 04:31:51;;;;;;;38.90;26.00;;;;;;;-0.04;100.00;101147.30;107912;1254;61091;-66
2024/03/02 04:34:19;;;;;;;43.80;28.70;;;;;;;-0.06;100.00;101146.23;108067;1254;73557;-65
2024/03/02 04:36:47;;;;;;;42.90;26.60;;;;;;;-0.06;100.00;101149.92;108111;1254;72829;-65
2024/03/02 04:39:16;;;;;;;43.40;28.00;;;;;;;-0.06;100.00;101152.96;108081;1255;71878;-65
2024/03/02 04:41:44;;;;;;;43.10;27.30;;;;;;;-0.06;100.00;101158.46;108006;1254;61224;-66
2024/03/02 04:44:12;;;;;;;44.90;28.20;;;;;;;-0.05;100.00;101157.70;108061;1254;61291;-66
2024/03/02 04:46:39;;;;;;;42.30;26.80;;;;;;;-0.05;100.00;101157.73;108079;1254;73144;-66
2024/03/02 04:49:07;;;;;;;42.40;26.90;;;;;;;-0.05;100.00;101159.77;108035;1254;71591;-66
2024/03/02 04:51:35;;;;;;;42.80;27.50;;;;;;;-0.04;100.00;101160.00;108062;1254;71355;-66
2024/03/02 04:54:04;;;;;;;43.90;27.00;;;;;;;-0.03;100.00;101163.91;107975;1257;60257;-66
2024/03/02 04:59:00;;;;;;;42.60;27.60;;;;;;;-0.01;100.00;101161.80;108086;1254;73362;-66
2024/03/02 05:01:28;;;;;;;42.40;27.10;;;;;;;0.02;100.00;101162.73;108104;1254;71713;-65
2024/03/02 05:03:56;;;;;;;42.00;27.20;;;;;;;0.03;100.00;101159.97;108177;1254;71390;-65
2024/03/02 05:06:24;;;;;;;43.70;26.80;;;;;;;0.05;100.00;101159.05;108135;1254;60874;-66
2024/03/02 05:08:52;;;;;;;43.80;28.70;;;;;;;0.08;100.00;101157.67;108105;1254;61094;-66
2024/03/02 05:11:56;;;;;;;39.50;24.80;;;;;;;0.11;100.00;101158.02;108121;1254;73444;-66
2024/03/02 05:14:28;;;;;;;45.70;27.00;;;;;;;0.14;100.00;101160.17;108139;1254;72578;-66
2024/03/02 05:16:56;;;;;;;40.20;26.70;;;;;;;0.17;100.00;101157.15;108102;1254;71156;-66
2024/03/02 05:19:25;;;;;;;44.00;27.70;;;;;;;0.22;100.00;101158.34;108103;1254;61084;-67
2024/03/02 05:21:53;;;;;;;38.60;25.50;;;;;;;0.27;100.00;101161.29;108089;1254;61015;-66
2024/03/02 05:24:20;;;;;;;39.90;26.30;;;;;;;0.32;100.00;101163.00;108132;1254;73349;-65
2024/03/02 05:26:49;;;;;;;43.60;25.60;;;;;;;0.37;100.00;101168.55;108142;1259;72862;-66
2024/03/02 05:29:17;;;;;;;41.10;26.80;;;;;;;0.43;100.00;101167.82;108105;1254;72336;-65
2024/03/02 05:31:45;;;;;;;38.50;25.50;;;;;;;0.50;100.00;101164.23;108127;1254;61266;-67
2024/03/02 05:34:12;;;;;;;43.20;27.70;;;;;;;0.61;100.00;101161.41;108067;1254;60094;-68
2024/03/02 05:36:41;;;;;;;41.90;26.30;;;;;;;0.71;100.00;101162.52;108044;1254;74608;-66
2024/03/02 05:39:10;;;;;;;42.10;27.10;;;;;;;0.82;100.00;101162.39;108070;1254;71537;-66
2024/03/02 05:41:38;;;;;;;41.50;26.50;;;;;;;0.89;100.00;101161.48;108071;1254;71464;-65
2024/03/02 05:44:06;;;;;;;43.30;27.00;;;;;;;0.99;100.00;101165.48;108119;1254;61234;-65
2024/03/02 05:46:33;;;;;;;40.00;24.30;;;;;;;1.06;100.00;101165.27;108113;1254;61238;-67
2024/03/02 05:49:03;;;;;;;36.10;23.90;;;;;;;1.12;100.00;101164.94;108062;1254;73731;-68
2024/03/02 05:51:31;;;;;;;39.70;25.80;;;;;;;1.21;100.00;101163.04;108082;1254;71484;-67
2024/03/02 05:53:59;;;;;;;37.10;24.00;;;;;;;1.28;100.00;101162.52;108032;1254;72668;-66
2024/03/02 05:56:37;;;;;;;36.10;24.00;;;;;;;1.34;100.00;101158.73;108136;1254;61237;-66
2024/03/02 05:59:26;;;;;;;40.40;23.80;;;;;;;1.38;100.00;101159.60;107860;1254;61089;-66
2024/03/02 06:01:54;;;;;;;38.20;23.30;;;;;;;1.44;100.00;101161.73;108072;1259;73471;-66
2024/03/02 06:04:22;;;;;;;38.70;24.90;;;;;;;1.50;100.00;101159.79;108089;1254;72728;-65
2024/03/02 06:06:50;;;;;;;37.10;24.20;;;;;;;1.56;100.00;101157.65;108098;1254;71356;-66
2024/03/02 06:09:20;;;;;;;32.50;21.40;;;;;;;1.65;100.00;101154.65;108078;1257;61080;-66
2024/03/02 06:11:47;;;;;;;37.20;24.40;;;;;;;1.72;100.00;101151.48;108105;1254;61241;-66
2024/03/02 06:14:15;;;;;;;37.10;21.40;;;;;;;1.79;100.00;101154.87;108088;1254;73405;-67
2024/03/02 06:16:43;;;;;;;37.40;24.70;;;;;;;1.89;100.00;101157.73;108064;1254;71451;-67
2024/03/02 06:19:10;;;;;;;33.40;21.60;;;;;;;2.01;100.00;101161.16;108092;1254;71278;-66
2024/03/02 06:21:40;;;;;;;34.80;23.50;;;;;;;2.13;100.00;101162.45;108018;1254;60369;-66
2024/03/02 06:24:07;;;;;;;36.20;23.30;;;;;;;2.23;100.00;101154.17;107825;1256;61069;-65
2024/03/02 06:26:35;;;;;;;35.10;21.80;;;;;;;2.32;100.00;101154.83;108047;1259;72939;-66
2024/03/02 06:29:03;;;;;;;35.80;22.80;;;;;;;2.44;100.00;101155.06;108101;1254;71069;-66
2024/03/02 06:31:31;;;;;;;34.10;22.20;;;;;;;2.55;100.00;101154.57;107998;1257;71377;-67
2024/03/02 06:33:58;;;;;;;36.00;24.30;;;;;;;2.63;100.00;101151.84;108012;1254;61237;-66
2024/03/02 06:36:27;;;;;;;32.30;21.50;;;;;;;2.74;100.00;101154.16;108079;1254;61084;-65
2024/03/02 06:38:54;;;;;;;30.90;20.70;;;;;;;2.83;100.00;101153.38;108154;1254;74072;-67
2024/03/02 06:41:22;;;;;;;35.60;23.50;;;;;;;2.91;100.00;101152.42;108094;1258;71750;-68
2024/03/02 06:43:54;;;;;;;30.40;21.50;;;;;;;2.94;100.00;101149.69;108144;1254;71385;-66
2024/03/02 06:46:22;;;;;;;;;;;;;;;2.96;100.00;101151.24;108130;1254;61999;-68
2024/03/02 06:48:49;;;;;;;30.10;20.90;;;;;;;3.00;100.00;101145.66;108040;1254;59675;-68
2024/03/02 06:51:17;;;;;;;33.90;20.90;;;;;;;3.07;100.00;101147.23;108086;1254;74598;-67
2024/03/02 06:53:46;;;;;;;29.60;20.40;;;;;;;3.18;100.00;101144.45;108152;1254;72213;-67
2024/03/02 06:56:13;;;;;;;30.50;20.70;;;;;;;3.27;100.00;101143.98;108134;1254;71315;-68
2024/03/02 06:58:42;;;;;;;30.20;20.40;;;;;;;3.37;100.00;101140.98;108165;1254;61116;-66
2024/03/02 07:01:10;;;;;;;30.10;20.60;;;;;;;3.45;100.00;101140.30;108135;1254;60506;-67
2024/03/02 07:03:41;;;;;;;29.20;20.60;;;;;;;3.53;100.00;101137.52;108132;1254;74737;-67
2024/03/02 07:06:09;;;;;;;33.50;22.20;;;;;;;3.62;100.00;101139.11;108100;1254;71595;-66
2024/03/02 07:08:37;;;;;;;30.60;21.00;;;;;;;3.71;100.00;101135.16;108102;1255;72671;-69
2024/03/02 07:11:05;;;;;;;30.60;21.50;;;;;;;3.82;100.00;101131.72;108125;1254;61129;-67
2024/03/02 07:13:32;;;;;;;28.00;20.00;;;;;;;3.88;100.00;101129.62;108119;1254;61018;-68
2024/03/02 07:18:31;;;;;;;30.00;20.00;;;;;;;4.06;100.00;101119.05;108030;1259;71445;-66
2024/03/02 07:21:00;;;;;;;29.60;19.90;;;;;;;4.19;100.00;101115.30;108085;1254;70745;-66
2024/03/02 07:23:30;;;;;;;28.40;19.80;;;;;;;4.32;100.00;101119.05;108120;1254;61179;-66
2024/03/02 07:25:59;;;;;;;26.90;18.60;;;;;;;4.41;100.00;101115.67;108116;1258;61024;-66
2024/03/02 07:28:30;;;;;;;28.20;19.70;;;;;;;4.53;100.00;101111.84;108135;1254;73379;-66
2024/03/02 07:31:02;;;;;;;33.00;19.50;;;;;;;4.61;100.00;101112.33;107835;1254;71474;-66
2024/03/02 07:33:30;;;;;;;32.30;20.10;;;;;;;4.68;100.00;101108.91;108112;1254;71605;-66
2024/03/02 07:36:02;;;;;;;29.70;19.80;;;;;;;4.75;100.00;101105.38;108048;1254;61110;-67
2024/03/02 07:38:34;;;;;;;28.50;19.50;;;;;;;4.84;100.00;101103.16;108078;1254;61692;-66
2024/03/02 07:41:02;;;;;;;26.80;17.90;;;;;;;4.93;100.00;101099.91;108105;1258;73415;-67
2024/03/02 07:43:31;;;;;;;29.30;19.00;;;;;;;5.03;99.92;101104.75;108166;1254;75499;-66
2024/03/02 07:45:59;;;;;;;26.30;18.00;;;;;;;5.10;97.84;101099.02;108070;1259;72884;-65
2024/03/02 07:48:27;;;;;;;25.50;17.80;;;;;;;5.16;94.43;101097.93;107969;1257;61135;-67
2024/03/02 07:50:55;;;;;;;26.80;18.30;;;;;;;5.18;91.12;101094.98;107960;1256;60250;-67
2024/03/02 07:53:23;;;;;;;25.70;17.20;;;;;;;5.22;90.46;101094.81;107970;1256;74596;-65
2024/03/02 07:55:51;;;;;;;26.10;17.90;;;;;;;5.32;90.65;101095.55;108033;1257;71563;-65
2024/03/02 07:58:19;;;;;;;25.50;18.00;;;;;;;5.43;88.17;101097.59;107991;1259;71155;-68
2024/03/02 08:00:47;;;;;;;25.50;16.50;;;;;;;5.47;84.86;101093.11;108258;1254;61120;-66
2024/03/02 08:03:17;;;;;;;26.20;17.20;;;;;;;5.48;82.77;101093.46;108167;1254;60977;-66
2024/03/02 08:05:46;;;;;;;26.80;17.40;;;;;;;5.50;81.97;101083.95;108078;1254;73652;-68
2024/03/02 08:08:13;;;;;;;24.60;16.10;;;;;;;5.57;81.24;101084.09;108066;1259;72752;-68
2024/03/02 08:10:41;;;;;;;26.60;16.00;;;;;;;5.65;80.44;101083.48;108058;1254;71489;-69
2024/03/02 08:13:09;;;;;;;22.70;15.90;;;;;;;5.74;78.98;101080.95;108126;1254;61000;-67
2024/03/02 08:15:37;;;;;;;23.30;15.00;;;;;;;5.86;77.89;101079.78;108107;1254;60977;-70
2024/03/02 08:18:05;;;;;;;22.00;15.00;;;;;;;5.96;75.23;101075.88;108128;1254;73362;-68
2024/03/02 08:20:33;;;;;;;19.80;14.30;;;;;;;6.02;74.35;101074.45;108085;1254;71454;-68
2024/03/02 08:23:00;;;;;;;22.90;15.80;;;;;;;6.14;73.55;101072.26;108006;1256;71974;-68
2024/03/02 08:25:28;;;;;;;24.00;15.70;;;;;;;6.24;72.00;101074.65;108106;1254;61094;-67
2024/03/02 08:27:56;;;;;;;21.10;15.20;;;;;;;6.29;71.80;101077.70;108114;1254;60388;-67
2024/03/02 08:30:24;;;;;;;22.40;14.70;;;;;;;6.39;71.87;101075.67;108093;1254;73378;-67
2024/03/02 08:32:52;;;;;;;23.70;16.20;;;;;;;6.51;71.89;101073.81;108072;1254;71459;-66
2024/03/02 08:35:22;;;;;;;22.60;15.50;;;;;;;6.62;71.11;101076.86;108022;1254;71399;-68
2024/03/02 08:37:50;;;;;;;22.40;15.20;;;;;;;6.70;70.15;101080.46;108093;1254;61215;-68
2024/03/02 08:40:17;;;;;;;20.90;14.30;;;;;;;6.78;69.39;101079.83;108076;1254;61800;-67
2024/03/02 08:42:46;;;;;;;19.90;14.10;;;;;;;6.85;67.99;101075.83;108046;1254;74668;-68
2024/03/02 08:45:14;;;;;;;22.20;15.80;;;;;;;6.88;67.87;101072.46;107850;1254;71150;-66
2024/03/02 08:47:41;;;;;;;22.70;15.20;;;;;;;6.97;67.70;101073.16;107860;1254;72067;-67
2024/03/02 08:50:09;;;;;;;20.30;14.10;;;;;;;7.05;67.35;101076.27;107992;1254;61084;-67
2024/03/02 08:52:37;;;;;;;20.10;14.60;;;;;;;7.14;67.43;101076.59;107977;1257;61203;-67
2024/03/02 08:55:06;;;;;;;21.40;15.30;;;;;;;7.24;66.83;101077.14;108156;1258;74639;-67
2024/03/02 08:57:34;;;;;;;21.00;14.50;;;;;;;7.33;65.90;101078.71;108133;1254;72696;-66
2024/03/02 09:00:05;;;;;;;21.50;14.80;;;;;;;7.31;64.58;101074.40;108089;1257;75268;-68
2024/03/02 09:02:32;;;;;;;19.30;14.20;;;;;;;7.22;64.49;101073.64;107984;1254;61195;-67
2024/03/02 09:05:00;;;;;;;20.70;14.40;;;;;;;7.24;64.94;101072.53;108068;1254;61103;-67
2024/03/02 09:07:27;;;;;;;21.90;14.60;;;;;;;7.32;65.44;101070.92;108092;1254;75676;-67
2024/03/02 09:09:57;;;;;;;18.90;13.30;;;;;;;7.41;65.42;101067.00;108113;1254;72770;-65
2024/03/02 09:12:24;;;;;;;16.80;11.80;;;;;;;7.51;64.90;101069.01;108126;1254;71548;-66
2024/03/02 09:14:52;;;;;;;17.70;12.60;;;;;;;7.59;64.17;101062.81;108167;1254;61138;-66
2024/03/02 09:17:20;;;;;;;17.10;12.10;;;;;;;7.68;62.89;101065.80;108097;1254;60446;-66
2024/03/02 09:19:47;;;;;;;15.30;11.00;;;;;;;7.69;62.16;101064.23;108135;1254;74659;-67
2024/03/02 09:22:15;;;;;;;16.40;11.40;;;;;;;7.69;61.77;101064.72;108118;1254;71748;-67
2024/03/02 09:24:43;;;;;;;17.90;11.30;;;;;;;7.71;61.55;101062.77;108147;1254;72642;-65
2024/03/02 09:27:11;;;;;;;15.50;11.10;;;;;;;7.79;60.96;101057.48;108059;1256;60443;-65
2024/03/02 09:29:39;;;;;;;15.30;10.00;;;;;;;7.88;59.93;101058.52;108037;1253;62190;-67
2024/03/02 09:32:07;;;;;;;16.90;11.40;;;;;;;7.95;58.74;101059.02;108104;1254;73455;-66
2024/03/02 09:34:34;;;;;;;16.40;10.50;;;;;;;7.87;59.09;101053.07;108114;1254;71659;-68
2024/03/02 09:37:04;;;;;;;15.40;10.10;;;;;;;8.11;58.97;101052.76;108060;1259;72540;-66
2024/03/02 09:39:32;;;;;;;17.60;10.10;;;;;;;8.24;58.66;101050.91;108192;1257;61390;-66
2024/03/02 09:41:59;;;;;;;14.90;10.00;;;;;;;8.36;57.85;101044.61;107957;1255;60541;-70
2024/03/02 09:44:27;;;;;;;14.70;9.60;;;;;;;8.39;57.57;101043.77;107993;1257;73461;-68
2024/03/02 09:46:55;;;;;;;16.10;10.60;;;;;;;8.54;56.82;101041.59;107961;1254;75451;-68
2024/03/02 09:49:23;;;;;;;16.50;10.80;;;;;;;8.55;56.27;101037.65;108004;1259;72682;-68
2024/03/02 09:51:51;;;;;;;15.10;10.80;;;;;;;8.60;56.24;101034.16;107983;1260;61107;-67
2024/03/02 09:54:19;;;;;;;16.80;11.00;;;;;;;8.64;56.25;101036.11;108101;1254;61122;-66
2024/03/02 09:56:51;;;;;;;16.50;11.40;;;;;;;8.78;56.33;101033.48;108039;1260;76877;-67
2024/03/02 09:59:20;;;;;;;15.80;11.40;;;;;;;8.89;55.96;101032.89;108103;1254;72674;-68
2024/03/02 10:02:09;;;;;;;16.10;10.30;;;;;;;8.95;55.11;101034.39;108081;1254;72950;-66
2024/03/02 10:04:37;;;;;;;16.10;10.80;;;;;;;8.98;55.47;101030.55;108103;1256;61083;-67
2024/03/02 10:07:15;;;;;;;16.70;11.50;;;;;;;9.08;55.32;101028.95;108062;1254;60981;-67
2024/03/02 10:09:47;;;;;;;14.00;10.20;;;;;;;9.15;55.23;101028.34;108123;1260;75102;-67
2024/03/02 10:12:15;;;;;;;;;;;;;;;9.30;54.44;101025.29;108018;1259;74930;-66
2024/03/02 10:14:43;;;;;;;16.00;10.90;;;;;;;9.31;54.20;101021.10;108039;1257;74027;-68
2024/03/02 10:17:12;;;;;;;16.40;10.50;;;;;;;9.41;53.43;101021.77;107994;1257;61357;-67
2024/03/02 10:19:39;;;;;;;14.40;10.20;;;;;;;9.38;53.35;101019.63;108073;1256;61094;-67
2024/03/02 10:22:10;;;;;;;16.90;12.10;;;;;;;9.52;52.62;101017.28;108038;1254;76828;-67
2024/03/02 10:24:38;;;;;;;16.70;11.30;;;;;;;9.44;52.59;101016.34;108029;1255;72778;-66
2024/03/02 10:27:18;;;;;;;18.10;11.50;;;;;;;9.42;53.05;101010.59;108064;1254;72781;-66
2024/03/02 10:29:47;;;;;;;16.20;11.50;;;;;;;9.63;52.46;101008.05;107968;1254;61247;-66
2024/03/02 10:32:15;;;;;;;16.20;11.60;;;;;;;9.65;52.06;101004.28;107925;1254;61077;-68
2024/03/02 10:34:47;;;;;;;16.70;11.50;;;;;;;9.54;51.72;101008.09;108056;1257;75012;-68
2024/03/02 10:37:15;;;;;;;14.70;10.90;;;;;;;9.41;51.98;101008.77;108228;1254;71927;-66
2024/03/02 10:39:42;;;;;;;17.60;11.30;;;;;;;9.32;52.24;101009.50;108093;1255;74885;-67
2024/03/02 10:42:10;;;;;;;18.00;11.80;;;;;;;9.28;53.07;101011.92;107947;1255;61081;-69
2024/03/02 10:44:38;;;;;;;18.50;12.50;;;;;;;9.29;53.83;101012.22;108056;1254;61099;-68
2024/03/02 10:47:05;;;;;;;16.90;12.00;;;;;;;9.36;54.29;101004.25;107836;1254;75081;-68
2024/03/02 10:49:33;;;;;;;19.20;12.40;;;;;;;9.49;54.08;101004.21;108114;1254;71008;-67
2024/03/02 10:52:01;;;;;;;16.00;11.30;;;;;;;9.57;53.35;101002.52;108104;1260;74807;-67
2024/03/02 10:54:35;;;;;;;20.20;12.30;;;;;;;9.63;53.27;101001.01;108166;1257;61140;-67
2024/03/02 10:57:05;;;;;;;18.60;11.90;;;;;;;9.62;52.82;101001.27;108083;1254;61071;-66
2024/03/02 10:59:38;;;;;;;18.60;12.70;;;;;;;9.57;52.97;101005.55;107820;1262;76733;-69
2024/03/02 11:02:08;;;;;;;18.70;12.90;;;;;;;9.52;53.73;101007.52;108115;1260;75089;-67
2024/03/02 11:04:36;;;;;;;19.00;12.30;;;;;;;9.50;54.56;101007.38;108122;1258;72808;-70
2024/03/02 11:07:06;;;;;;;17.30;12.20;;;;;;;9.50;54.98;101003.64;108086;1254;61777;-70
2024/03/02 11:09:37;;;;;;;16.50;12.40;;;;;;;9.48;54.78;101001.53;108119;1254;61093;-68
2024/03/02 11:12:30;;;;;;;19.70;13.30;;;;;;;9.39;55.11;100998.16;108124;1254;76620;-66
2024/03/02 11:14:59;;;;;;;17.90;13.30;;;;;;;9.30;55.15;101003.70;108137;1254;71850;-67
2024/03/02 11:17:27;;;;;;;18.50;12.60;;;;;;;9.21;54.98;101003.09;108111;1259;73941;-67